sensor_id;sensor_type;location;lat;lon;timestamp;P1;durP1;ratioP1;P2;durP2;ratioP2
64313;SDS011;50650;48.180;11.524;2023-08-01T00:19:36;4.95;;;2.08;;
64313;SDS011;50650;48.180;11.524;2023-08-01T00:22:02;3.75;;;1.80;;
64313;SDS011;50650;48.180;11.524;2023-08-01T00:24:29;2.85;;;1.50;;
64313;SDS011;50650;48.180;11.524;2023-08-01T00:26:55;2.40;;;1.73;;
64313;SDS011;50650;48.180;11.524;2023-08-01T00:29:25;3.63;;;1.90;;
64313;SDS011;50650;48.180;11.524;2023-08-01T00:31:51;3.92;;;1.70;;
64313;SDS011;50650;48.180;11.524;2023-08-01T00:34:18;5.47;;;1.90;;
64313;SDS011;50650;48.180;11.524;2023-08-01T00:36:45;3.00;;;1.75;;
64313;SDS011;50650;48.180;11.524;2023-08-01T00:39:12;2.92;;;1.40;;
64313;SDS011;50650;48.180;11.524;2023-08-01T00:41:38;2.78;;;1.77;;
64313;SDS011;50650;48.180;11.524;2023-08-01T00:44:05;3.05;;;1.70;;
64313;SDS011;50650;48.180;11.524;2023-08-01T00:46:34;2.85;;;1.63;;
64313;SDS011;50650;48.180;11.524;2023-08-01T00:49:00;2.97;;;1.80;;
64313;SDS011;50650;48.180;11.524;2023-08-01T00:51:27;3.30;;;1.60;;
64313;SDS011;50650;48.180;11.524;2023-08-01T00:53:55;2.78;;;1.85;;
64313;SDS011;50650;48.180;11.524;2023-08-01T00:56:21;3.33;;;1.92;;
64313;SDS011;50650;48.180;11.524;2023-08-01T00:58:48;6.20;;;2.15;;
64313;SDS011;50650;48.180;11.524;2023-08-01T01:01:17;7.47;;;1.80;;
64313;SDS011;50650;48.180;11.524;2023-08-01T01:03:47;2.38;;;1.70;;
64313;SDS011;50650;48.180;11.524;2023-08-01T01:06:16;3.05;;;1.70;;
64313;SDS011;50650;48.180;11.524;2023-08-01T01:08:47;3.75;;;1.75;;
64313;SDS011;50650;48.180;11.524;2023-08-01T01:11:14;3.22;;;2.17;;
64313;SDS011;50650;48.180;11.524;2023-08-01T01:13:41;2.63;;;1.50;;
64313;SDS011;50650;48.180;11.524;2023-08-01T01:16:07;3.95;;;2.05;;
64313;SDS011;50650;48.180;11.524;2023-08-01T01:18:34;3.80;;;1.95;;
64313;SDS011;50650;48.180;11.524;2023-08-01T01:21:02;3.30;;;1.73;;
64313;SDS011;50650;48.180;11.524;2023-08-01T01:23:29;4.07;;;2.03;;
64313;SDS011;50650;48.180;11.524;2023-08-01T01:25:56;3.13;;;1.65;;
64313;SDS011;50650;48.180;11.524;2023-08-01T01:28:23;6.03;;;1.80;;
64313;SDS011;50650;48.180;11.524;2023-08-01T01:30:50;5.63;;;1.92;;
64313;SDS011;50650;48.180;11.524;2023-08-01T01:33:18;3.10;;;1.80;;
64313;SDS011;50650;48.180;11.524;2023-08-01T01:35:44;2.42;;;1.63;;
64313;SDS011;50650;48.180;11.524;2023-08-01T01:38:18;2.83;;;1.63;;
64313;SDS011;50650;48.180;11.524;2023-08-01T01:40:44;3.17;;;1.40;;
64313;SDS011;50650;48.180;11.524;2023-08-01T01:43:11;3.67;;;2.03;;
64313;SDS011;50650;48.180;11.524;2023-08-01T01:45:37;2.78;;;1.98;;
64313;SDS011;50650;48.180;11.524;2023-08-01T01:48:04;3.22;;;1.80;;
64313;SDS011;50650;48.180;11.524;2023-08-01T01:50:33;5.50;;;1.90;;
64313;SDS011;50650;48.180;11.524;2023-08-01T01:53:00;3.83;;;2.03;;
64313;SDS011;50650;48.180;11.524;2023-08-01T01:55:28;2.80;;;1.75;;
64313;SDS011;50650;48.180;11.524;2023-08-01T01:57:54;2.53;;;1.85;;
64313;SDS011;50650;48.180;11.524;2023-08-01T02:00:20;3.72;;;2.03;;
64313;SDS011;50650;48.180;11.524;2023-08-01T02:02:47;5.90;;;1.90;;
64313;SDS011;50650;48.180;11.524;2023-08-01T02:05:16;5.65;;;1.95;;
64313;SDS011;50650;48.180;11.524;2023-08-01T02:07:42;3.58;;;1.90;;
64313;SDS011;50650;48.180;11.524;2023-08-01T02:10:15;7.25;;;1.98;;
64313;SDS011;50650;48.180;11.524;2023-08-01T02:12:43;4.90;;;1.80;;
64313;SDS011;50650;48.180;11.524;2023-08-01T02:15:09;3.65;;;2.00;;
64313;SDS011;50650;48.180;11.524;2023-08-01T02:17:36;3.03;;;1.85;;
64313;SDS011;50650;48.180;11.524;2023-08-01T02:20:02;3.15;;;2.00;;
64313;SDS011;50650;48.180;11.524;2023-08-01T02:22:29;2.78;;;1.52;;
64313;SDS011;50650;48.180;11.524;2023-08-01T02:24:56;4.47;;;1.80;;
64313;SDS011;50650;48.180;11.524;2023-08-01T02:27:22;4.22;;;1.88;;
64313;SDS011;50650;48.180;11.524;2023-08-01T02:29:50;4.35;;;2.35;;
64313;SDS011;50650;48.180;11.524;2023-08-01T02:32:17;3.75;;;2.13;;
64313;SDS011;50650;48.180;11.524;2023-08-01T02:34:43;3.17;;;1.65;;
64313;SDS011;50650;48.180;11.524;2023-08-01T02:37:09;4.65;;;2.00;;
64313;SDS011;50650;48.180;11.524;2023-08-01T02:39:36;6.25;;;2.00;;
64313;SDS011;50650;48.180;11.524;2023-08-01T02:42:02;4.60;;;1.92;;
64313;SDS011;50650;48.180;11.524;2023-08-01T02:44:29;3.83;;;2.00;;
64313;SDS011;50650;48.180;11.524;2023-08-01T02:46:57;4.75;;;1.98;;
64313;SDS011;50650;48.180;11.524;2023-08-01T02:49:23;4.20;;;2.10;;
64313;SDS011;50650;48.180;11.524;2023-08-01T02:51:50;2.33;;;1.80;;
64313;SDS011;50650;48.180;11.524;2023-08-01T02:54:16;3.80;;;2.33;;
64313;SDS011;50650;48.180;11.524;2023-08-01T02:56:43;3.35;;;1.80;;
64313;SDS011;50650;48.180;11.524;2023-08-01T02:59:09;5.15;;;2.22;;
64313;SDS011;50650;48.180;11.524;2023-08-01T03:01:36;3.50;;;1.92;;
64313;SDS011;50650;48.180;11.524;2023-08-01T03:04:05;5.68;;;2.10;;
64313;SDS011;50650;48.180;11.524;2023-08-01T03:06:32;3.97;;;2.00;;
64313;SDS011;50650;48.180;11.524;2023-08-01T03:08:58;2.83;;;1.83;;
64313;SDS011;50650;48.180;11.524;2023-08-01T03:11:25;3.60;;;1.80;;
64313;SDS011;50650;48.180;11.524;2023-08-01T03:13:52;3.88;;;2.05;;
64313;SDS011;50650;48.180;11.524;2023-08-01T03:16:18;3.25;;;2.08;;
64313;SDS011;50650;48.180;11.524;2023-08-01T03:18:44;2.90;;;1.83;;
64313;SDS011;50650;48.180;11.524;2023-08-01T03:21:12;3.88;;;2.00;;
64313;SDS011;50650;48.180;11.524;2023-08-01T03:23:39;4.88;;;1.80;;
64313;SDS011;50650;48.180;11.524;2023-08-01T03:26:05;3.30;;;1.77;;
64313;SDS011;50650;48.180;11.524;2023-08-01T03:28:32;3.28;;;2.30;;
64313;SDS011;50650;48.180;11.524;2023-08-01T03:30:58;4.38;;;2.20;;
64313;SDS011;50650;48.180;11.524;2023-08-01T03:33:24;4.18;;;2.22;;
64313;SDS011;50650;48.180;11.524;2023-08-01T03:35:51;4.78;;;2.10;;
64313;SDS011;50650;48.180;11.524;2023-08-01T03:38:19;6.35;;;2.20;;
64313;SDS011;50650;48.180;11.524;2023-08-01T03:40:45;4.18;;;2.20;;
64313;SDS011;50650;48.180;11.524;2023-08-01T03:43:12;5.15;;;2.10;;
64313;SDS011;50650;48.180;11.524;2023-08-01T03:45:39;4.78;;;2.05;;
64313;SDS011;50650;48.180;11.524;2023-08-01T03:48:05;3.67;;;2.13;;
64313;SDS011;50650;48.180;11.524;2023-08-01T03:50:32;4.20;;;2.05;;
64313;SDS011;50650;48.180;11.524;2023-08-01T03:52:58;4.65;;;2.35;;
64313;SDS011;50650;48.180;11.524;2023-08-01T03:55:28;4.20;;;2.10;;
64313;SDS011;50650;48.180;11.524;2023-08-01T03:57:54;3.67;;;2.30;;
64313;SDS011;50650;48.180;11.524;2023-08-01T04:00:21;6.60;;;2.42;;
64313;SDS011;50650;48.180;11.524;2023-08-01T04:02:47;5.28;;;2.28;;
64313;SDS011;50650;48.180;11.524;2023-08-01T04:05:14;4.85;;;2.40;;
64313;SDS011;50650;48.180;11.524;2023-08-01T04:07:42;3.20;;;2.40;;
64313;SDS011;50650;48.180;11.524;2023-08-01T04:10:09;4.22;;;2.42;;
64313;SDS011;50650;48.180;11.524;2023-08-01T04:12:37;4.65;;;2.47;;
64313;SDS011;50650;48.180;11.524;2023-08-01T04:15:04;4.75;;;2.60;;
64313;SDS011;50650;48.180;11.524;2023-08-01T04:17:33;5.90;;;2.75;;
64313;SDS011;50650;48.180;11.524;2023-08-01T04:20:00;5.28;;;2.67;;
64313;SDS011;50650;48.180;11.524;2023-08-01T04:22:26;6.60;;;2.92;;
64313;SDS011;50650;48.180;11.524;2023-08-01T04:24:52;6.07;;;2.42;;
64313;SDS011;50650;48.180;11.524;2023-08-01T04:27:19;5.45;;;2.85;;
64313;SDS011;50650;48.180;11.524;2023-08-01T04:29:47;4.50;;;2.78;;
64313;SDS011;50650;48.180;11.524;2023-08-01T04:32:13;6.25;;;2.75;;
64313;SDS011;50650;48.180;11.524;2023-08-01T04:34:40;4.43;;;2.55;;
64313;SDS011;50650;48.180;11.524;2023-08-01T04:37:07;4.47;;;2.83;;
64313;SDS011;50650;48.180;11.524;2023-08-01T04:39:35;4.07;;;2.60;;
64313;SDS011;50650;48.180;11.524;2023-08-01T04:42:01;4.47;;;2.90;;
64313;SDS011;50650;48.180;11.524;2023-08-01T04:44:31;6.85;;;2.90;;
64313;SDS011;50650;48.180;11.524;2023-08-01T04:47:02;8.40;;;2.83;;
64313;SDS011;50650;48.180;11.524;2023-08-01T04:49:29;5.28;;;2.95;;
64313;SDS011;50650;48.180;11.524;2023-08-01T04:51:55;7.75;;;3.00;;
64313;SDS011;50650;48.180;11.524;2023-08-01T04:54:22;6.53;;;2.72;;
64313;SDS011;50650;48.180;11.524;2023-08-01T04:56:48;3.78;;;2.50;;
64313;SDS011;50650;48.180;11.524;2023-08-01T04:59:14;5.22;;;2.63;;
64313;SDS011;50650;48.180;11.524;2023-08-01T05:01:41;6.53;;;2.72;;
64313;SDS011;50650;48.180;11.524;2023-08-01T05:04:09;6.60;;;3.00;;
64313;SDS011;50650;48.180;11.524;2023-08-01T05:06:35;8.10;;;2.92;;
64313;SDS011;50650;48.180;11.524;2023-08-01T05:09:01;5.07;;;2.90;;
64313;SDS011;50650;48.180;11.524;2023-08-01T05:11:31;4.80;;;3.35;;
64313;SDS011;50650;48.180;11.524;2023-08-01T05:13:57;5.22;;;3.10;;
64313;SDS011;50650;48.180;11.524;2023-08-01T05:16:24;6.13;;;2.90;;
64313;SDS011;50650;48.180;11.524;2023-08-01T05:18:50;5.82;;;3.20;;
64313;SDS011;50650;48.180;11.524;2023-08-01T05:21:18;4.57;;;2.50;;
64313;SDS011;50650;48.180;11.524;2023-08-01T05:23:45;6.40;;;3.00;;
64313;SDS011;50650;48.180;11.524;2023-08-01T05:26:11;4.72;;;2.78;;
64313;SDS011;50650;48.180;11.524;2023-08-01T05:28:37;7.07;;;2.70;;
64313;SDS011;50650;48.180;11.524;2023-08-01T05:31:07;4.78;;;3.08;;
64313;SDS011;50650;48.180;11.524;2023-08-01T05:33:33;8.60;;;3.45;;
64313;SDS011;50650;48.180;11.524;2023-08-01T05:36:00;5.15;;;3.08;;
64313;SDS011;50650;48.180;11.524;2023-08-01T05:38:28;5.07;;;3.13;;
64313;SDS011;50650;48.180;11.524;2023-08-01T05:40:57;7.60;;;3.58;;
64313;SDS011;50650;48.180;11.524;2023-08-01T05:43:23;5.78;;;2.97;;
64313;SDS011;50650;48.180;11.524;2023-08-01T05:45:53;4.03;;;2.78;;
64313;SDS011;50650;48.180;11.524;2023-08-01T05:48:19;4.55;;;2.88;;
64313;SDS011;50650;48.180;11.524;2023-08-01T05:50:46;5.80;;;3.10;;
64313;SDS011;50650;48.180;11.524;2023-08-01T05:53:13;4.82;;;2.80;;
64313;SDS011;50650;48.180;11.524;2023-08-01T05:55:41;6.65;;;3.20;;
64313;SDS011;50650;48.180;11.524;2023-08-01T05:58:07;9.70;;;2.85;;
64313;SDS011;50650;48.180;11.524;2023-08-01T06:00:34;5.47;;;3.15;;
64313;SDS011;50650;48.180;11.524;2023-08-01T06:03:00;6.00;;;2.70;;
64313;SDS011;50650;48.180;11.524;2023-08-01T06:05:35;5.72;;;3.10;;
64313;SDS011;50650;48.180;11.524;2023-08-01T06:08:02;7.15;;;3.03;;
64313;SDS011;50650;48.180;11.524;2023-08-01T06:10:29;3.83;;;2.33;;
64313;SDS011;50650;48.180;11.524;2023-08-01T06:12:57;3.30;;;2.40;;
64313;SDS011;50650;48.180;11.524;2023-08-01T06:15:23;6.80;;;2.67;;
64313;SDS011;50650;48.180;11.524;2023-08-01T06:17:50;6.05;;;2.80;;
64313;SDS011;50650;48.180;11.524;2023-08-01T06:20:16;4.55;;;2.33;;
64313;SDS011;50650;48.180;11.524;2023-08-01T06:22:43;6.63;;;2.78;;
64313;SDS011;50650;48.180;11.524;2023-08-01T06:25:09;5.28;;;2.85;;
64313;SDS011;50650;48.180;11.524;2023-08-01T06:27:36;6.25;;;2.92;;
64313;SDS011;50650;48.180;11.524;2023-08-01T06:30:04;5.50;;;2.80;;
64313;SDS011;50650;48.180;11.524;2023-08-01T06:32:31;6.35;;;2.63;;
64313;SDS011;50650;48.180;11.524;2023-08-01T06:34:58;4.13;;;2.38;;
64313;SDS011;50650;48.180;11.524;2023-08-01T06:37:27;5.53;;;2.65;;
64313;SDS011;50650;48.180;11.524;2023-08-01T06:39:54;4.38;;;2.65;;
64313;SDS011;50650;48.180;11.524;2023-08-01T06:42:21;4.88;;;2.65;;
64313;SDS011;50650;48.180;11.524;2023-08-01T06:44:47;5.93;;;2.50;;
64313;SDS011;50650;48.180;11.524;2023-08-01T06:47:15;4.15;;;2.65;;
64313;SDS011;50650;48.180;11.524;2023-08-01T06:49:41;3.17;;;2.17;;
64313;SDS011;50650;48.180;11.524;2023-08-01T06:52:08;5.25;;;2.58;;
64313;SDS011;50650;48.180;11.524;2023-08-01T06:54:35;6.65;;;2.83;;
64313;SDS011;50650;48.180;11.524;2023-08-01T06:57:01;4.55;;;2.20;;
64313;SDS011;50650;48.180;11.524;2023-08-01T06:59:28;4.60;;;2.28;;
64313;SDS011;50650;48.180;11.524;2023-08-01T07:01:55;6.18;;;2.85;;
64313;SDS011;50650;48.180;11.524;2023-08-01T07:04:23;5.75;;;2.53;;
64313;SDS011;50650;48.180;11.524;2023-08-01T07:06:49;7.38;;;2.83;;
64313;SDS011;50650;48.180;11.524;2023-08-01T07:09:20;3.92;;;2.95;;
64313;SDS011;50650;48.180;11.524;2023-08-01T07:11:46;4.55;;;2.28;;
64313;SDS011;50650;48.180;11.524;2023-08-01T07:14:15;6.15;;;2.40;;
64313;SDS011;50650;48.180;11.524;2023-08-01T07:16:42;5.63;;;2.50;;
64313;SDS011;50650;48.180;11.524;2023-08-01T07:19:08;3.78;;;2.17;;
64313;SDS011;50650;48.180;11.524;2023-08-01T07:24:37;4.15;;;2.33;;
64313;SDS011;50650;48.180;11.524;2023-08-01T07:27:03;5.05;;;2.50;;
64313;SDS011;50650;48.180;11.524;2023-08-01T07:29:31;7.13;;;2.33;;
64313;SDS011;50650;48.180;11.524;2023-08-01T07:31:57;3.80;;;2.03;;
64313;SDS011;50650;48.180;11.524;2023-08-01T07:34:23;4.82;;;2.03;;
64313;SDS011;50650;48.180;11.524;2023-08-01T07:36:50;3.75;;;1.95;;
64313;SDS011;50650;48.180;11.524;2023-08-01T07:39:20;3.65;;;1.88;;
64313;SDS011;50650;48.180;11.524;2023-08-01T07:41:46;4.65;;;2.00;;
64313;SDS011;50650;48.180;11.524;2023-08-01T07:44:13;4.25;;;2.38;;
64313;SDS011;50650;48.180;11.524;2023-08-01T07:46:39;5.10;;;2.00;;
64313;SDS011;50650;48.180;11.524;2023-08-01T07:49:06;4.72;;;2.05;;
64313;SDS011;50650;48.180;11.524;2023-08-01T07:51:32;6.00;;;1.77;;
64313;SDS011;50650;48.180;11.524;2023-08-01T07:53:59;4.20;;;1.90;;
64313;SDS011;50650;48.180;11.524;2023-08-01T07:56:27;3.80;;;2.15;;
64313;SDS011;50650;48.180;11.524;2023-08-01T07:58:53;7.95;;;1.90;;
64313;SDS011;50650;48.180;11.524;2023-08-01T08:01:20;3.35;;;2.00;;
64313;SDS011;50650;48.180;11.524;2023-08-01T08:03:46;7.70;;;1.90;;
64313;SDS011;50650;48.180;11.524;2023-08-01T08:06:13;3.03;;;2.00;;
64313;SDS011;50650;48.180;11.524;2023-08-01T08:08:39;4.13;;;2.08;;
64313;SDS011;50650;48.180;11.524;2023-08-01T08:11:06;3.33;;;1.88;;
64313;SDS011;50650;48.180;11.524;2023-08-01T08:13:33;6.10;;;2.10;;
64313;SDS011;50650;48.180;11.524;2023-08-01T08:16:00;5.00;;;2.80;;
64313;SDS011;50650;48.180;11.524;2023-08-01T08:18:26;4.32;;;2.25;;
64313;SDS011;50650;48.180;11.524;2023-08-01T08:21:00;3.92;;;2.15;;
64313;SDS011;50650;48.180;11.524;2023-08-01T08:23:45;5.00;;;2.10;;
64313;SDS011;50650;48.180;11.524;2023-08-01T08:26:11;4.78;;;2.42;;
64313;SDS011;50650;48.180;11.524;2023-08-01T08:28:39;4.40;;;2.15;;
64313;SDS011;50650;48.180;11.524;2023-08-01T08:31:23;5.55;;;2.22;;
64313;SDS011;50650;48.180;11.524;2023-08-01T08:34:04;4.38;;;2.10;;
64313;SDS011;50650;48.180;11.524;2023-08-01T08:36:30;3.47;;;1.70;;
64313;SDS011;50650;48.180;11.524;2023-08-01T08:38:57;3.72;;;1.90;;
64313;SDS011;50650;48.180;11.524;2023-08-01T08:41:26;5.25;;;2.00;;
64313;SDS011;50650;48.180;11.524;2023-08-01T08:43:55;4.80;;;1.98;;
64313;SDS011;50650;48.180;11.524;2023-08-01T08:46:23;5.22;;;1.83;;
64313;SDS011;50650;48.180;11.524;2023-08-01T08:48:53;6.10;;;2.50;;
64313;SDS011;50650;48.180;11.524;2023-08-01T08:51:20;4.95;;;2.00;;
64313;SDS011;50650;48.180;11.524;2023-08-01T08:53:47;5.65;;;2.10;;
64313;SDS011;50650;48.180;11.524;2023-08-01T08:56:17;4.43;;;2.20;;
64313;SDS011;50650;48.180;11.524;2023-08-01T08:58:43;4.00;;;1.98;;
64313;SDS011;50650;48.180;11.524;2023-08-01T09:01:13;5.57;;;2.20;;
64313;SDS011;50650;48.180;11.524;2023-08-01T09:03:39;3.92;;;2.17;;
64313;SDS011;50650;48.180;11.524;2023-08-01T09:06:07;3.42;;;2.10;;
64313;SDS011;50650;48.180;11.524;2023-08-01T09:08:36;3.80;;;1.90;;
64313;SDS011;50650;48.180;11.524;2023-08-01T09:11:05;4.22;;;2.40;;
64313;SDS011;50650;48.180;11.524;2023-08-01T09:13:32;5.60;;;2.80;;
64313;SDS011;50650;48.180;11.524;2023-08-01T09:16:00;4.30;;;2.35;;
64313;SDS011;50650;48.180;11.524;2023-08-01T09:18:32;4.05;;;2.08;;
64313;SDS011;50650;48.180;11.524;2023-08-01T09:21:01;3.83;;;2.13;;
64313;SDS011;50650;48.180;11.524;2023-08-01T09:23:29;4.57;;;2.33;;
64313;SDS011;50650;48.180;11.524;2023-08-01T09:25:56;3.88;;;2.10;;
64313;SDS011;50650;48.180;11.524;2023-08-01T09:28:23;5.88;;;2.08;;
64313;SDS011;50650;48.180;11.524;2023-08-01T09:30:55;2.70;;;1.70;;
64313;SDS011;50650;48.180;11.524;2023-08-01T09:33:25;6.82;;;1.95;;
64313;SDS011;50650;48.180;11.524;2023-08-01T09:35:55;5.45;;;1.77;;
64313;SDS011;50650;48.180;11.524;2023-08-01T09:38:25;3.45;;;2.13;;
64313;SDS011;50650;48.180;11.524;2023-08-01T09:40:54;4.43;;;2.08;;
64313;SDS011;50650;48.180;11.524;2023-08-01T09:43:20;4.85;;;2.25;;
64313;SDS011;50650;48.180;11.524;2023-08-01T09:45:58;3.53;;;1.98;;
64313;SDS011;50650;48.180;11.524;2023-08-01T09:48:25;3.60;;;2.10;;
64313;SDS011;50650;48.180;11.524;2023-08-01T09:50:52;3.33;;;2.00;;
64313;SDS011;50650;48.180;11.524;2023-08-01T09:53:20;4.13;;;2.10;;
64313;SDS011;50650;48.180;11.524;2023-08-01T09:58:17;5.30;;;2.03;;
64313;SDS011;50650;48.180;11.524;2023-08-01T10:00:49;3.67;;;1.98;;
64313;SDS011;50650;48.180;11.524;2023-08-01T10:03:16;4.63;;;2.25;;
64313;SDS011;50650;48.180;11.524;2023-08-01T10:05:47;3.47;;;2.17;;
64313;SDS011;50650;48.180;11.524;2023-08-01T10:08:13;4.68;;;1.98;;
64313;SDS011;50650;48.180;11.524;2023-08-01T10:10:42;4.20;;;2.50;;
64313;SDS011;50650;48.180;11.524;2023-08-01T10:13:08;3.55;;;2.10;;
64313;SDS011;50650;48.180;11.524;2023-08-01T10:15:37;3.67;;;1.98;;
64313;SDS011;50650;48.180;11.524;2023-08-01T10:18:04;3.45;;;2.33;;
64313;SDS011;50650;48.180;11.524;2023-08-01T10:20:31;5.50;;;2.30;;
64313;SDS011;50650;48.180;11.524;2023-08-01T10:22:58;5.22;;;2.35;;
64313;SDS011;50650;48.180;11.524;2023-08-01T10:25:25;3.25;;;2.03;;
64313;SDS011;50650;48.180;11.524;2023-08-01T10:28:00;4.32;;;2.25;;
64313;SDS011;50650;48.180;11.524;2023-08-01T10:30:27;6.80;;;2.42;;
64313;SDS011;50650;48.180;11.524;2023-08-01T10:32:55;6.45;;;2.03;;
64313;SDS011;50650;48.180;11.524;2023-08-01T10:35:31;4.22;;;1.83;;
64313;SDS011;50650;48.180;11.524;2023-08-01T10:38:03;3.05;;;2.08;;
64313;SDS011;50650;48.180;11.524;2023-08-01T10:40:34;2.90;;;1.75;;
64313;SDS011;50650;48.180;11.524;2023-08-01T10:43:02;4.80;;;2.67;;
64313;SDS011;50650;48.180;11.524;2023-08-01T10:45:29;3.78;;;2.20;;
64313;SDS011;50650;48.180;11.524;2023-08-01T10:48:05;3.67;;;2.20;;
64313;SDS011;50650;48.180;11.524;2023-08-01T10:50:32;5.00;;;2.22;;
64313;SDS011;50650;48.180;11.524;2023-08-01T10:53:02;4.10;;;1.92;;
64313;SDS011;50650;48.180;11.524;2023-08-01T10:55:41;4.85;;;2.25;;
64313;SDS011;50650;48.180;11.524;2023-08-01T10:58:10;3.35;;;2.08;;
64313;SDS011;50650;48.180;11.524;2023-08-01T11:00:37;5.68;;;1.98;;
64313;SDS011;50650;48.180;11.524;2023-08-01T11:03:07;3.40;;;2.10;;
64313;SDS011;50650;48.180;11.524;2023-08-01T11:05:33;2.90;;;1.98;;
64313;SDS011;50650;48.180;11.524;2023-08-01T11:08:00;4.75;;;1.75;;
64313;SDS011;50650;48.180;11.524;2023-08-01T11:10:29;4.95;;;2.30;;
64313;SDS011;50650;48.180;11.524;2023-08-01T11:12:56;3.55;;;1.88;;
64313;SDS011;50650;48.180;11.524;2023-08-01T11:15:24;3.58;;;2.17;;
64313;SDS011;50650;48.180;11.524;2023-08-01T11:17:51;2.58;;;1.65;;
64313;SDS011;50650;48.180;11.524;2023-08-01T11:20:19;2.42;;;1.33;;
64313;SDS011;50650;48.180;11.524;2023-08-01T11:22:55;3.20;;;1.60;;
64313;SDS011;50650;48.180;11.524;2023-08-01T11:25:35;2.70;;;1.40;;
64313;SDS011;50650;48.180;11.524;2023-08-01T11:28:03;3.20;;;1.45;;
64313;SDS011;50650;48.180;11.524;2023-08-01T11:30:32;2.17;;;1.42;;
64313;SDS011;50650;48.180;11.524;2023-08-01T11:32:59;9.63;;;1.63;;
64313;SDS011;50650;48.180;11.524;2023-08-01T11:35:33;2.47;;;1.20;;
64313;SDS011;50650;48.180;11.524;2023-08-01T11:37:59;2.33;;;1.58;;
64313;SDS011;50650;48.180;11.524;2023-08-01T11:40:26;2.13;;;1.30;;
64313;SDS011;50650;48.180;11.524;2023-08-01T11:42:55;4.43;;;1.55;;
64313;SDS011;50650;48.180;11.524;2023-08-01T11:45:23;2.00;;;1.38;;
64313;SDS011;50650;48.180;11.524;2023-08-01T11:47:51;4.55;;;1.70;;
64313;SDS011;50650;48.180;11.524;2023-08-01T11:50:22;2.80;;;1.52;;
64313;SDS011;50650;48.180;11.524;2023-08-01T11:52:49;4.57;;;1.90;;
64313;SDS011;50650;48.180;11.524;2023-08-01T11:55:26;2.38;;;1.52;;
64313;SDS011;50650;48.180;11.524;2023-08-01T11:57:56;2.70;;;1.88;;
64313;SDS011;50650;48.180;11.524;2023-08-01T12:00:23;2.72;;;1.90;;
64313;SDS011;50650;48.180;11.524;2023-08-01T12:02:52;3.75;;;2.20;;
64313;SDS011;50650;48.180;11.524;2023-08-01T12:05:29;2.30;;;1.60;;
64313;SDS011;50650;48.180;11.524;2023-08-01T12:07:55;3.15;;;2.28;;
64313;SDS011;50650;48.180;11.524;2023-08-01T12:10:22;2.97;;;1.75;;
64313;SDS011;50650;48.180;11.524;2023-08-01T12:12:49;4.78;;;1.90;;
64313;SDS011;50650;48.180;11.524;2023-08-01T12:15:15;3.13;;;1.70;;
64313;SDS011;50650;48.180;11.524;2023-08-01T12:17:41;3.03;;;2.00;;
64313;SDS011;50650;48.180;11.524;2023-08-01T12:20:10;3.50;;;1.88;;
64313;SDS011;50650;48.180;11.524;2023-08-01T12:22:37;4.72;;;2.00;;
64313;SDS011;50650;48.180;11.524;2023-08-01T12:25:05;2.97;;;2.08;;
64313;SDS011;50650;48.180;11.524;2023-08-01T12:27:34;3.20;;;1.73;;
64313;SDS011;50650;48.180;11.524;2023-08-01T12:30:01;3.10;;;1.63;;
64313;SDS011;50650;48.180;11.524;2023-08-01T12:32:27;2.50;;;1.52;;
64313;SDS011;50650;48.180;11.524;2023-08-01T12:34:54;2.97;;;1.83;;
64313;SDS011;50650;48.180;11.524;2023-08-01T12:37:22;2.60;;;1.70;;
64313;SDS011;50650;48.180;11.524;2023-08-01T12:39:48;4.57;;;1.55;;
64313;SDS011;50650;48.180;11.524;2023-08-01T12:42:14;2.47;;;1.50;;
64313;SDS011;50650;48.180;11.524;2023-08-01T12:44:41;2.92;;;1.60;;
64313;SDS011;50650;48.180;11.524;2023-08-01T12:47:07;4.40;;;1.58;;
64313;SDS011;50650;48.180;11.524;2023-08-01T12:49:36;4.47;;;1.55;;
64313;SDS011;50650;48.180;11.524;2023-08-01T12:52:03;3.13;;;1.60;;
64313;SDS011;50650;48.180;11.524;2023-08-01T12:54:31;2.58;;;1.48;;
64313;SDS011;50650;48.180;11.524;2023-08-01T12:56:57;3.17;;;1.30;;
64313;SDS011;50650;48.180;11.524;2023-08-01T12:59:24;4.18;;;1.88;;
64313;SDS011;50650;48.180;11.524;2023-08-01T13:01:50;3.30;;;1.60;;
64313;SDS011;50650;48.180;11.524;2023-08-01T13:04:16;3.28;;;1.40;;
64313;SDS011;50650;48.180;11.524;2023-08-01T13:06:43;2.70;;;1.40;;
64313;SDS011;50650;48.180;11.524;2023-08-01T13:09:10;2.70;;;1.40;;
64313;SDS011;50650;48.180;11.524;2023-08-01T13:11:38;1.67;;;1.23;;
64313;SDS011;50650;48.180;11.524;2023-08-01T13:14:07;2.47;;;1.38;;
64313;SDS011;50650;48.180;11.524;2023-08-01T13:16:33;2.60;;;1.60;;
64313;SDS011;50650;48.180;11.524;2023-08-01T13:22:14;2.20;;;1.30;;
64313;SDS011;50650;48.180;11.524;2023-08-01T13:24:40;3.13;;;1.35;;
64313;SDS011;50650;48.180;11.524;2023-08-01T13:27:08;2.15;;;1.33;;
64313;SDS011;50650;48.180;11.524;2023-08-01T13:29:34;2.35;;;1.38;;
64313;SDS011;50650;48.180;11.524;2023-08-01T13:32:01;3.58;;;1.70;;
64313;SDS011;50650;48.180;11.524;2023-08-01T13:34:34;2.38;;;1.60;;
64313;SDS011;50650;48.180;11.524;2023-08-01T13:37:00;7.30;;;1.50;;
64313;SDS011;50650;48.180;11.524;2023-08-01T13:39:26;3.60;;;1.63;;
64313;SDS011;50650;48.180;11.524;2023-08-01T13:41:53;3.70;;;1.40;;
64313;SDS011;50650;48.180;11.524;2023-08-01T13:44:21;2.50;;;1.63;;
64313;SDS011;50650;48.180;11.524;2023-08-01T13:46:47;3.60;;;1.38;;
64313;SDS011;50650;48.180;11.524;2023-08-01T13:49:14;2.33;;;1.50;;
64313;SDS011;50650;48.180;11.524;2023-08-01T13:51:42;9.27;;;1.67;;
64313;SDS011;50650;48.180;11.524;2023-08-01T13:54:10;2.50;;;1.65;;
64313;SDS011;50650;48.180;11.524;2023-08-01T13:56:36;1.98;;;1.20;;
64313;SDS011;50650;48.180;11.524;2023-08-01T13:59:04;2.28;;;1.40;;
64313;SDS011;50650;48.180;11.524;2023-08-01T14:04:36;3.42;;;1.40;;
64313;SDS011;50650;48.180;11.524;2023-08-01T14:07:03;4.57;;;1.50;;
64313;SDS011;50650;48.180;11.524;2023-08-01T14:09:29;5.93;;;1.80;;
64313;SDS011;50650;48.180;11.524;2023-08-01T14:11:57;3.85;;;1.88;;
64313;SDS011;50650;48.180;11.524;2023-08-01T14:14:23;6.68;;;2.22;;
64313;SDS011;50650;48.180;11.524;2023-08-01T14:16:56;3.58;;;1.77;;
64313;SDS011;50650;48.180;11.524;2023-08-01T14:19:24;5.38;;;1.83;;
64313;SDS011;50650;48.180;11.524;2023-08-01T14:21:54;5.63;;;1.70;;
64313;SDS011;50650;48.180;11.524;2023-08-01T14:24:21;4.50;;;1.70;;
64313;SDS011;50650;48.180;11.524;2023-08-01T14:26:47;3.00;;;1.65;;
64313;SDS011;50650;48.180;11.524;2023-08-01T14:29:16;1.92;;;1.10;;
64313;SDS011;50650;48.180;11.524;2023-08-01T14:31:43;2.78;;;1.20;;
64313;SDS011;50650;48.180;11.524;2023-08-01T14:34:10;7.38;;;6.68;;
64313;SDS011;50650;48.180;11.524;2023-08-01T14:36:38;3.05;;;1.10;;
64313;SDS011;50650;48.180;11.524;2023-08-01T14:39:04;1.65;;;0.80;;
64313;SDS011;50650;48.180;11.524;2023-08-01T14:41:31;2.03;;;0.88;;
64313;SDS011;50650;48.180;11.524;2023-08-01T14:43:57;1.45;;;0.80;;
64313;SDS011;50650;48.180;11.524;2023-08-01T14:46:23;1.40;;;1.10;;
64313;SDS011;50650;48.180;11.524;2023-08-01T14:48:50;2.13;;;0.88;;
64313;SDS011;50650;48.180;11.524;2023-08-01T14:51:16;1.20;;;0.90;;
64313;SDS011;50650;48.180;11.524;2023-08-01T14:53:44;2.22;;;1.15;;
64313;SDS011;50650;48.180;11.524;2023-08-01T14:56:11;1.90;;;1.00;;
64313;SDS011;50650;48.180;11.524;2023-08-01T14:58:37;3.08;;;1.10;;
64313;SDS011;50650;48.180;11.524;2023-08-01T15:01:11;3.97;;;0.93;;
64313;SDS011;50650;48.180;11.524;2023-08-01T15:03:38;2.08;;;1.20;;
64313;SDS011;50650;48.180;11.524;2023-08-01T15:06:05;3.28;;;1.85;;